Time;durP1;ratioP1;P1;durP2;ratioP2;P2;SDS_P1;SDS_P2;PMS_P1;PMS_P2;Temp;Humidity;BMP_temperature;BMP_pressure;BME280_temperature;BME280_humidity;BME280_pressure;Samples;Min_cycle;Max_cycle;Signal;HPM_P1;HPM_P2
2022/10/29 00:00:52;;;;;;;24.42;6.55;;;13.10;99.90;;;;;;5125797;23;20055;-87
2022/10/29 00:03:22;;;;;;;18.13;5.43;;;13.10;99.90;;;;;;5121849;28;20027;-89
2022/10/29 00:06:03;;;;;;;21.85;5.47;;;13.20;99.90;;;;;;5099452;28;20048;-92
2022/10/29 00:08:29;;;;;;;15.48;5.47;;;13.10;99.90;;;;;;5103165;28;20366;-94
2022/10/29 00:10:55;;;;;;;22.27;6.00;;;13.10;99.90;;;;;;5106410;28;20063;-91
2022/10/29 00:13:21;;;;;;;18.38;6.20;;;13.90;99.90;;;;;;5102935;28;20721;-95
2022/10/29 00:15:47;;;;;;;22.02;5.60;;;13.00;99.90;;;;;;5104540;28;20048;-91
2022/10/29 00:18:12;;;;;;;21.58;5.43;;;13.10;99.90;;;;;;5086836;28;20051;-93
2022/10/29 00:20:38;;;;;;;20.83;6.22;;;13.10;99.90;;;;;;5104877;28;20040;-94
2022/10/29 00:23:04;;;;;;;25.85;6.05;;;13.00;99.90;;;;;;5120508;28;20040;-93
2022/10/29 00:25:29;;;;;;;25.58;6.07;;;13.00;99.90;;;;;;5122446;28;20071;-91
2022/10/29 00:27:55;;;;;;;18.10;5.38;;;13.00;99.90;;;;;;5123756;28;20128;-93
2022/10/29 00:30:21;;;;;;;21.55;6.20;;;13.00;99.90;;;;;;5102009;28;20066;-95
2022/10/29 00:32:46;;;;;;;20.15;5.75;;;13.00;99.90;;;;;;5120618;28;20048;-92
2022/10/29 00:35:12;;;;;;;20.33;5.18;;;13.00;99.90;;;;;;5125449;28;20054;-93
2022/10/29 00:37:39;;;;;;;27.90;6.10;;;12.90;99.90;;;;;;5089551;28;20051;-92
2022/10/29 00:40:06;;;;;;;31.35;6.50;;;12.90;99.90;;;;;;5106357;28;20047;-92
2022/10/29 00:42:31;;;;;;;25.48;6.68;;;12.90;99.90;;;;;;5120262;28;20140;-94
2022/10/29 00:44:57;;;;;;;18.90;5.60;;;12.90;99.90;;;;;;5119665;28;20047;-94
2022/10/29 00:47:33;;;;;;;20.02;6.85;;;12.90;99.90;;;;;;5118294;28;20047;-90
2022/10/29 00:50:07;;;;;;;20.98;6.90;;;12.90;99.90;;;;;;5085044;28;20048;-92
2022/10/29 00:52:33;;;;;;;22.13;5.57;;;13.50;99.90;;;;;;5102652;28;20487;-93
2022/10/29 00:54:59;;;;;;;21.58;5.97;;;12.90;99.90;;;;;;5112927;28;20046;-89
2022/10/29 00:57:30;;;;;;;28.13;5.55;;;12.80;99.90;;;;;;5117730;28;20044;-93
2022/10/29 00:59:56;;;;;;;33.17;6.45;;;12.90;99.90;;;;;;5108534;27;20051;-93
2022/10/29 01:02:22;;;;;;;27.13;6.00;;;12.90;99.90;;;;;;5091691;27;20057;-92
2022/10/29 01:04:47;;;;;;;26.38;6.20;;;12.90;99.90;;;;;;5094344;27;20039;-93
2022/10/29 01:07:13;;;;;;;25.05;6.30;;;12.80;99.90;;;;;;5086449;27;20055;-94
2022/10/29 01:09:39;;;;;;;24.27;6.20;;;12.80;99.90;;;;;;5078583;27;20098;-94
2022/10/29 01:12:31;;;;;;;22.92;5.85;;;12.80;99.90;;;;;;5096167;27;20077;-94
2022/10/29 01:15:18;;;;;;;26.52;6.30;;;12.80;99.90;;;;;;5111671;27;20122;-94
2022/10/29 01:18:21;;;;;;;35.33;6.50;;;12.70;99.90;;;;;;5116001;27;20019;-93
2022/10/29 01:21:09;;;;;;;24.70;5.72;;;12.70;99.90;;;;;;5114830;27;20069;-89
2022/10/29 01:23:34;;;;;;;36.78;6.00;;;12.70;99.90;;;;;;5147195;27;20024;-88
2022/10/29 01:26:22;;;;;;;22.90;6.70;;;12.60;99.90;;;;;;5145382;27;20102;-94
2022/10/29 01:29:31;;;;;;;24.55;5.93;;;12.60;99.90;;;;;;5127410;27;20047;-93
2022/10/29 01:32:03;;;;;;;24.70;6.15;;;12.50;99.90;;;;;;5031534;28;20045;-94
2022/10/29 01:34:57;;;;;;;30.88;6.65;;;12.50;99.90;;;;;;5031387;28;20334;-94
2022/10/29 01:37:32;;;;;;;26.52;5.95;;;12.50;99.90;;;;;;5090604;27;20058;-91
2022/10/29 01:40:28;;;;;;;20.27;5.20;;;12.50;99.90;;;;;;5112054;27;20058;-95
2022/10/29 01:43:10;;;;;;;22.25;6.43;;;12.40;99.90;;;;;;5097970;27;20069;-93
2022/10/29 01:45:40;;;;;;;29.20;6.18;;;12.30;99.90;;;;;;5114196;27;20051;-89
2022/10/29 01:48:14;;;;;;;26.95;5.60;;;12.30;99.90;;;;;;5132647;27;20106;-92
2022/10/29 01:50:42;;;;;;;20.27;6.03;;;12.20;99.90;;;;;;5117317;27;20082;-92
2022/10/29 01:53:08;;;;;;;25.40;6.10;;;12.20;99.90;;;;;;5109282;27;20043;-92
2022/10/29 01:55:34;;;;;;;24.80;5.43;;;12.10;99.90;;;;;;5113376;27;20130;-92
2022/10/29 01:58:02;;;;;;;21.55;5.70;;;12.00;99.90;;;;;;5144496;27;20176;-91
2022/10/29 02:00:28;;;;;;;19.83;5.65;;;11.40;99.90;;;;;;5117785;27;20138;-91
2022/10/29 02:03:19;;;;;;;22.67;5.53;;;12.00;99.90;;;;;;5118496;27;20083;-92
2022/10/29 02:05:59;;;;;;;31.80;5.65;;;12.00;99.90;;;;;;5103993;27;20054;-92
2022/10/29 02:08:36;;;;;;;22.48;5.97;;;11.90;99.90;;;;;;5135999;27;20062;-93
2022/10/29 02:11:19;;;;;;;24.70;5.45;;;11.90;99.90;;;;;;5105213;27;20047;-93
2022/10/29 02:13:50;;;;;;;24.52;5.78;;;11.80;99.90;;;;;;5112911;27;20122;-89
2022/10/29 02:16:15;;;;;;;24.27;5.50;;;11.80;99.90;;;;;;5117839;27;20050;-86
2022/10/29 02:18:42;;;;;;;19.48;6.00;;;11.80;99.90;;;;;;5118453;27;20043;-88
2022/10/29 02:21:08;;;;;;;13.93;5.25;;;11.70;99.90;;;;;;5122361;27;20056;-88
2022/10/29 02:23:33;;;;;;;20.52;5.38;;;11.70;99.90;;;;;;5138092;27;20047;-88
2022/10/29 02:25:59;;;;;;;22.40;4.93;;;11.70;99.90;;;;;;5119166;27;20126;-90
2022/10/29 02:28:24;;;;;;;18.98;6.00;;;11.70;99.90;;;;;;5149734;27;20027;-92
2022/10/29 02:30:50;;;;;;;20.63;5.93;;;11.70;99.90;;;;;;5152649;27;20027;-92
2022/10/29 02:33:16;;;;;;;20.65;5.55;;;11.70;99.90;;;;;;5150461;27;20057;-93
2022/10/29 02:35:41;;;;;;;28.13;5.97;;;11.70;99.90;;;;;;5147089;27;20070;-92
2022/10/29 02:38:07;;;;;;;24.98;5.88;;;11.70;99.90;;;;;;5153975;27;20027;-91
2022/10/29 02:40:33;;;;;;;23.83;5.70;;;11.70;99.90;;;;;;5123371;27;20048;-88
2022/10/29 02:42:58;;;;;;;28.25;6.38;;;11.70;99.90;;;;;;5157549;27;20031;-87
2022/10/29 02:45:24;;;;;;;23.70;6.18;;;11.70;99.90;;;;;;5140112;27;20029;-87
2022/10/29 02:47:49;;;;;;;21.58;6.38;;;11.70;99.90;;;;;;5112815;28;20055;-92
2022/10/29 02:50:15;;;;;;;28.33;7.05;;;11.70;99.90;;;;;;5102739;28;20039;-94
2022/10/29 02:52:41;;;;;;;28.52;7.43;;;11.70;99.90;;;;;;5120192;27;20368;-92
2022/10/29 02:55:07;;;;;;;32.38;7.43;;;11.70;99.90;;;;;;5103153;27;20043;-92
2022/10/29 02:57:32;;;;;;;32.72;8.18;;;11.70;99.90;;;;;;5142913;27;20096;-94
2022/10/29 02:59:58;;;;;;;24.95;7.82;;;11.60;99.90;;;;;;5129064;28;20051;-90
2022/10/29 03:02:24;;;;;;;30.50;8.45;;;11.70;99.90;;;;;;5111028;28;20100;-91
2022/10/29 03:04:51;;;;;;;22.10;8.35;;;11.60;99.90;;;;;;5111994;28;20628;-91
2022/10/29 03:07:16;;;;;;;27.55;9.43;;;11.60;99.90;;;;;;5126565;28;20070;-92
2022/10/29 03:09:42;;;;;;;24.75;9.55;;;11.70;99.90;;;;;;5106909;28;20043;-93
2022/10/29 03:12:07;;;;;;;28.38;9.60;;;11.70;99.90;;;;;;5120779;28;20050;-94
2022/10/29 03:14:33;;;;;;;31.67;9.32;;;11.70;99.90;;;;;;5102434;28;20414;-93
2022/10/29 03:16:59;;;;;;;33.55;10.07;;;11.70;99.90;;;;;;5116534;28;20130;-92
2022/10/29 03:19:24;;;;;;;30.58;10.00;;;11.70;99.90;;;;;;5116184;28;20047;-94
2022/10/29 03:21:50;;;;;;;32.42;10.60;;;11.70;99.90;;;;;;5116052;28;20047;-92
2022/10/29 03:24:15;;;;;;;28.30;10.25;;;11.80;99.90;;;;;;5082681;28;20050;-91
2022/10/29 03:26:41;;;;;;;30.38;10.57;;;11.80;99.90;;;;;;5132515;28;20133;-91
2022/10/29 03:29:07;;;;;;;36.00;11.43;;;11.80;99.90;;;;;;5116092;28;20082;-91
2022/10/29 03:31:32;;;;;;;35.63;10.77;;;11.90;99.90;;;;;;5132626;28;20052;-94
2022/10/29 03:33:58;;;;;;;38.10;11.35;;;11.90;99.90;;;;;;5121430;28;20135;-91
2022/10/29 03:36:24;;;;;;;31.77;11.52;;;11.90;99.90;;;;;;5142293;27;20043;-90
2022/10/29 03:38:50;;;;;;;37.53;11.27;;;11.90;99.90;;;;;;5131458;27;20059;-93
2022/10/29 03:41:15;;;;;;;36.60;11.98;;;12.00;99.90;;;;;;5107052;27;20047;-94
2022/10/29 03:43:41;;;;;;;34.97;11.85;;;12.00;99.90;;;;;;5104446;27;20043;-94
2022/10/29 03:46:07;;;;;;;32.10;11.90;;;12.00;99.90;;;;;;5104386;27;20092;-93
2022/10/29 03:48:33;;;;;;;30.52;11.80;;;12.10;99.90;;;;;;5103726;27;20050;-95
2022/10/29 03:51:04;;;;;;;37.70;11.93;;;12.10;99.90;;;;;;5104881;27;20538;-92
2022/10/29 03:53:30;;;;;;;27.60;11.20;;;12.10;99.90;;;;;;5122329;27;20107;-94
2022/10/29 03:55:56;;;;;;;32.67;11.15;;;12.10;99.90;;;;;;5105000;27;20055;-95
2022/10/29 03:58:22;;;;;;;30.75;11.48;;;12.20;99.90;;;;;;5138250;27;20107;-92
2022/10/29 04:00:57;;;;;;;25.60;11.15;;;12.20;99.90;;;;;;5142116;27;20062;-87
2022/10/29 04:03:23;;;;;;;39.47;13.25;;;12.20;99.90;;;;;;5142719;27;20046;-87
2022/10/29 04:05:49;;;;;;;30.02;11.23;;;12.20;99.90;;;;;;5141951;27;20045;-89
2022/10/29 04:08:14;;;;;;;30.38;11.23;;;12.20;99.90;;;;;;5140136;28;20110;-96
2022/10/29 04:10:44;;;;;;;39.42;12.30;;;12.30;99.90;;;;;;5086368;28;20491;-95
2022/10/29 04:13:10;;;;;;;34.78;13.10;;;12.30;99.90;;;;;;5102153;28;20066;-92
2022/10/29 04:15:35;;;;;;;58.35;13.68;;;12.30;99.90;;;;;;5119045;28;20047;-94
2022/10/29 04:18:01;;;;;;;53.08;14.32;;;12.30;99.90;;;;;;5122356;28;20035;-95
2022/10/29 04:20:27;;;;;;;74.45;14.40;;;12.40;99.90;;;;;;5142805;28;20402;-94
2022/10/29 04:22:52;;;;;;;74.10;14.45;;;12.40;99.90;;;;;;5085697;28;20391;-93
2022/10/29 04:25:18;;;;;;;73.80;15.57;;;12.40;99.90;;;;;;5102359;28;20051;-91
2022/10/29 04:27:43;;;;;;;70.72;14.48;;;12.40;99.90;;;;;;5118208;28;20075;-95
2022/10/29 04:30:09;;;;;;;48.47;13.65;;;12.40;99.90;;;;;;5101083;28;20039;-95
2022/10/29 04:32:35;;;;;;;59.47;14.30;;;12.40;99.90;;;;;;5136519;28;20047;-92
2022/10/29 04:35:01;;;;;;;76.53;15.82;;;12.50;99.90;;;;;;5137961;28;20086;-94
2022/10/29 04:37:29;;;;;;;71.68;16.52;;;12.40;99.90;;;;;;5121740;28;20047;-94
2022/10/29 04:39:55;;;;;;;97.97;16.15;;;12.50;99.90;;;;;;5126039;28;20082;-96
2022/10/29 04:42:21;;;;;;;137.55;18.23;;;12.50;99.90;;;;;;5138629;28;20879;-95
2022/10/29 04:44:46;;;;;;;74.43;16.80;;;12.50;99.90;;;;;;5119326;28;20054;-94
2022/10/29 04:47:12;;;;;;;135.15;18.60;;;12.50;99.90;;;;;;5138394;28;20071;-90
2022/10/29 04:49:38;;;;;;;113.30;16.92;;;12.50;99.90;;;;;;5098296;28;20054;-90
2022/10/29 04:52:03;;;;;;;103.80;17.15;;;12.60;99.90;;;;;;5118996;28;20055;-90
2022/10/29 04:54:29;;;;;;;56.30;15.43;;;12.60;99.90;;;;;;5115135;28;20067;-92
2022/10/29 04:56:55;;;;;;;55.05;15.13;;;12.60;99.90;;;;;;5110908;28;20039;-93
2022/10/29 04:59:20;;;;;;;62.67;15.03;;;12.60;99.90;;;;;;5073043;28;1093259;-93
2022/10/29 05:01:46;;;;;;;73.32;15.70;;;12.60;99.90;;;;;;5084598;28;20070;-94
2022/10/29 05:04:12;;;;;;;132.25;17.50;;;12.60;99.90;;;;;;5103636;28;20112;-93
2022/10/29 05:06:37;;;;;;;120.13;18.17;;;12.60;99.90;;;;;;5091578;28;20060;-91
2022/10/29 05:09:04;;;;;;;142.55;17.52;;;12.60;99.90;;;;;;5084867;28;20107;-95
2022/10/29 05:11:29;;;;;;;97.72;16.25;;;12.60;99.90;;;;;;5111904;28;20061;-95
2022/10/29 05:13:55;;;;;;;110.35;16.20;;;12.50;99.90;;;;;;5104152;28;20086;-94
2022/10/29 05:16:21;;;;;;;196.85;19.40;;;12.60;99.90;;;;;;5102986;28;20051;-94
2022/10/29 05:18:46;;;;;;;118.43;17.83;;;12.60;99.90;;;;;;5127970;28;20047;-88
2022/10/29 05:21:12;;;;;;;85.28;15.30;;;12.60;99.90;;;;;;5264936;22;20036;-84
2022/10/29 05:23:43;;;;;;;99.38;16.45;;;12.60;99.90;;;;;;5157264;23;20042;-85
2022/10/29 05:26:09;;;;;;;122.53;17.05;;;12.10;99.90;;;;;;5117780;23;20048;-95
2022/10/29 05:28:35;;;;;;;139.32;18.85;;;12.60;99.90;;;;;;5086926;28;20107;-90
2022/10/29 05:31:06;;;;;;;118.63;17.58;;;11.80;99.90;;;;;;5085289;28;20043;-93
2022/10/29 05:33:31;;;;;;;101.57;17.50;;;12.60;99.90;;;;;;5074960;28;20039;-94
2022/10/29 05:35:59;;;;;;;134.82;17.67;;;12.60;99.90;;;;;;5066204;28;20052;-90
2022/10/29 05:38:31;;;;;;;108.80;16.55;;;11.70;99.90;;;;;;5091205;28;20035;-91
2022/10/29 05:40:59;;;;;;;122.60;17.65;;;12.60;99.90;;;;;;5089255;28;20141;-93
2022/10/29 05:43:25;;;;;;;122.10;16.85;;;12.60;99.90;;;;;;5082443;28;20064;-91
2022/10/29 05:45:51;;;;;;;130.05;17.08;;;12.60;99.90;;;;;;5100371;28;20126;-92
2022/10/29 05:48:16;;;;;;;136.05;16.73;;;12.70;99.90;;;;;;5103635;28;20044;-95
2022/10/29 05:50:42;;;;;;;109.10;16.20;;;12.70;99.90;;;;;;5080099;28;20040;-93
2022/10/29 05:53:10;;;;;;;194.85;19.13;;;12.70;99.90;;;;;;5090697;28;20075;-95
2022/10/29 05:55:35;;;;;;;82.72;15.52;;;12.70;99.90;;;;;;5090438;28;20090;-94
2022/10/29 05:58:06;;;;;;;100.45;17.27;;;12.70;99.90;;;;;;5087934;23;20055;-95
2022/10/29 06:00:34;;;;;;;100.15;16.83;;;12.70;99.90;;;;;;5090306;28;20047;-95
2022/10/29 06:02:59;;;;;;;97.65;16.58;;;13.30;99.90;;;;;;5099376;28;20044;-93
2022/10/29 06:05:30;;;;;;;151.68;20.30;;;12.70;99.90;;;;;;5115533;28;20141;-96
2022/10/29 06:07:57;;;;;;;122.82;19.40;;;12.70;99.90;;;;;;5113182;28;20053;-95
2022/10/29 06:10:25;;;;;;;122.10;18.67;;;12.70;99.90;;;;;;5107920;28;20218;-96
2022/10/29 06:12:51;;;;;;;79.60;17.65;;;13.20;99.90;;;;;;5099981;28;20044;-89
2022/10/29 06:15:17;;;;;;;178.15;21.42;;;12.70;99.90;;;;;;5118435;28;20036;-89
2022/10/29 06:17:43;;;;;;;146.13;19.90;;;12.70;99.90;;;;;;5111079;28;20065;-89
2022/10/29 06:20:09;;;;;;;215.63;22.23;;;12.70;99.90;;;;;;5127885;28;20039;-92
2022/10/29 06:22:35;;;;;;;129.52;19.95;;;12.70;99.90;;;;;;5095530;28;20092;-94
2022/10/29 06:25:01;;;;;;;118.20;19.73;;;12.70;99.90;;;;;;5133453;28;20074;-91
2022/10/29 06:27:26;;;;;;;84.75;19.58;;;12.80;99.90;;;;;;5098852;28;20043;-94
2022/10/29 06:29:52;;;;;;;89.40;19.08;;;12.80;99.90;;;;;;5114510;28;20028;-91
2022/10/29 06:32:18;;;;;;;253.15;23.77;;;12.80;99.90;;;;;;5099636;28;20106;-93
2022/10/29 06:34:44;;;;;;;146.73;21.50;;;12.90;99.90;;;;;;5127736;28;20046;-94
2022/10/29 06:37:09;;;;;;;181.23;21.98;;;12.80;99.90;;;;;;5113727;28;20054;-89
2022/10/29 06:39:35;;;;;;;132.20;21.15;;;12.80;99.90;;;;;;5126272;22;20031;-86
2022/10/29 06:42:03;;;;;;;122.35;19.55;;;12.80;99.90;;;;;;5113793;23;20089;-87
2022/10/29 06:44:36;;;;;;;135.18;21.05;;;11.60;99.90;;;;;;5090667;23;20032;-87
2022/10/29 06:47:02;;;;;;;76.22;21.52;;;11.80;99.90;;;;;;5192369;22;20069;-94
2022/10/29 06:49:31;;;;;;;97.70;20.63;;;12.90;99.90;;;;;;5091322;28;20073;-88
2022/10/29 06:51:56;;;;;;;103.43;21.92;;;12.90;99.90;;;;;;5094778;28;20099;-95
2022/10/29 06:54:22;;;;;;;93.47;21.65;;;12.80;99.90;;;;;;5106941;28;20079;-93
2022/10/29 06:56:51;;;;;;;87.10;22.13;;;12.80;99.90;;;;;;5103936;28;20047;-90
2022/10/29 06:59:22;;;;;;;101.13;23.13;;;12.60;99.90;;;;;;5092020;28;20064;-93
2022/10/29 07:01:48;;;;;;;90.13;23.38;;;13.00;99.90;;;;;;5075580;28;20514;-88
2022/10/29 07:04:14;;;;;;;78.28;21.70;;;13.00;99.90;;;;;;5080800;28;20069;-93
2022/10/29 07:06:40;;;;;;;81.55;21.92;;;12.90;99.90;;;;;;5095267;28;20039;-95
2022/10/29 07:09:06;;;;;;;83.28;21.98;;;12.90;99.90;;;;;;5071035;28;20043;-95
2022/10/29 07:11:35;;;;;;;69.88;20.23;;;12.90;99.90;;;;;;5063395;28;20062;-93
2022/10/29 07:14:01;;;;;;;106.47;22.13;;;12.50;99.90;;;;;;5066526;28;20040;-95
2022/10/29 07:16:27;;;;;;;109.25;22.70;;;12.90;99.90;;;;;;5081946;28;20051;-92
2022/10/29 07:19:01;;;;;;;115.28;24.08;;;12.60;99.90;;;;;;5078947;28;20072;-94
2022/10/29 07:21:27;;;;;;;86.88;23.08;;;13.30;99.90;;;;;;5093239;28;20059;-93
2022/10/29 07:23:53;;;;;;;82.50;21.90;;;12.90;99.90;;;;;;5077074;28;20093;-92
2022/10/29 07:26:21;;;;;;;74.53;21.90;;;13.00;99.90;;;;;;5089322;28;20041;-94
2022/10/29 07:28:47;;;;;;;77.22;20.75;;;13.00;99.90;;;;;;5106199;28;20491;-96
2022/10/29 07:31:13;;;;;;;82.82;18.52;;;13.00;99.90;;;;;;5091590;28;20052;-92
2022/10/29 07:33:38;;;;;;;119.88;20.25;;;13.10;99.90;;;;;;5100141;28;20050;-89
2022/10/29 07:36:04;;;;;;;60.80;18.27;;;13.00;99.90;;;;;;5065436;28;20055;-91
2022/10/29 07:38:30;;;;;;;82.53;18.05;;;12.90;99.90;;;;;;5062450;28;20488;-93
2022/10/29 07:40:55;;;;;;;64.45;17.98;;;12.80;99.90;;;;;;5088039;28;20043;-92
2022/10/29 07:43:21;;;;;;;79.20;17.17;;;12.80;99.90;;;;;;5071603;28;20032;-92
2022/10/29 07:45:51;;;;;;;71.13;18.35;;;12.80;99.90;;;;;;5067770;28;20067;-90
2022/10/29 07:48:20;;;;;;;66.80;18.02;;;12.80;99.90;;;;;;5055589;28;20044;-92
2022/10/29 07:50:46;;;;;;;70.25;18.67;;;12.80;99.90;;;;;;5044879;28;20031;-92
2022/10/29 07:53:11;;;;;;;73.70;19.48;;;12.80;99.90;;;;;;5075502;28;20036;-93
2022/10/29 07:55:37;;;;;;;77.57;20.10;;;12.90;99.90;;;;;;5060380;28;20050;-91
2022/10/29 07:58:05;;;;;;;71.93;19.85;;;12.90;99.90;;;;;;5108146;28;20035;-88
2022/10/29 08:00:32;;;;;;;71.13;20.35;;;12.90;99.90;;;;;;5079558;27;20019;-88
2022/10/29 08:02:57;;;;;;;60.40;20.58;;;13.00;99.90;;;;;;5078488;27;20035;-85
2022/10/29 08:05:25;;;;;;;58.10;20.08;;;13.00;99.90;;;;;;5099105;28;20073;-91
2022/10/29 08:07:54;;;;;;;47.80;20.27;;;13.10;99.90;;;;;;5066246;28;20048;-90
2022/10/29 08:10:20;;;;;;;47.85;19.15;;;13.10;99.90;;;;;;5063239;28;20059;-92
2022/10/29 08:12:50;;;;;;;48.47;19.40;;;13.20;99.90;;;;;;5082062;28;20063;-91
2022/10/29 08:15:16;;;;;;;44.95;19.52;;;13.30;99.90;;;;;;5079635;28;20051;-87
2022/10/29 08:17:42;;;;;;;46.78;19.73;;;13.40;99.90;;;;;;5101297;28;20020;-85
2022/10/29 08:20:08;;;;;;;40.78;18.60;;;13.40;99.90;;;;;;5095728;27;20113;-85
2022/10/29 08:22:34;;;;;;;36.75;17.13;;;13.50;99.90;;;;;;5077807;27;20036;-88
2022/10/29 08:25:00;;;;;;;41.75;19.88;;;13.60;99.90;;;;;;5089970;28;20086;-86
2022/10/29 08:27:26;;;;;;;41.85;19.20;;;13.70;99.90;;;;;;5080941;28;20054;-90
2022/10/29 08:29:51;;;;;;;39.83;18.88;;;13.70;99.90;;;;;;5056585;28;20093;-89
2022/10/29 08:32:17;;;;;;;43.05;19.13;;;13.70;99.90;;;;;;5071574;28;20274;-89
2022/10/29 08:34:43;;;;;;;36.80;18.17;;;13.80;99.90;;;;;;5055542;28;20039;-89
2022/10/29 08:37:08;;;;;;;39.47;19.15;;;14.00;99.90;;;;;;5066365;28;20099;-89
2022/10/29 08:39:34;;;;;;;36.92;19.38;;;14.00;99.90;;;;;;5097028;28;20111;-89
2022/10/29 08:42:09;;;;;;;37.97;18.83;;;14.00;99.90;;;;;;5108561;28;20051;-84
2022/10/29 08:44:55;;;;;;;40.00;19.13;;;14.10;99.90;;;;;;5091949;28;20028;-84
2022/10/29 08:47:22;;;;;;;40.58;18.83;;;14.10;99.90;;;;;;5094482;28;20043;-86
2022/10/29 08:50:11;;;;;;;40.53;18.63;;;14.10;99.90;;;;;;5084165;28;20047;-86
2022/10/29 08:52:37;;;;;;;42.50;19.40;;;14.10;99.90;;;;;;5074048;28;20111;-88
2022/10/29 08:55:05;;;;;;;42.40;18.65;;;14.20;99.90;;;;;;5058776;28;20040;-91
2022/10/29 08:57:32;;;;;;;44.20;18.75;;;14.30;99.90;;;;;;5070144;28;20043;-92
2022/10/29 09:00:04;;;;;;;44.65;19.80;;;14.40;99.90;;;;;;5054594;28;20062;-89
2022/10/29 09:02:29;;;;;;;39.33;18.05;;;14.50;99.90;;;;;;5052482;28;20047;-88
2022/10/29 09:04:55;;;;;;;37.00;17.67;;;14.50;99.90;;;;;;5071272;28;20043;-87
2022/10/29 09:07:39;;;;;;;35.05;18.05;;;14.60;99.90;;;;;;5050989;28;20156;-88
2022/10/29 09:10:29;;;;;;;35.63;17.80;;;14.60;99.90;;;;;;5084896;28;20047;-89
2022/10/29 09:13:07;;;;;;;30.38;16.25;;;14.60;99.90;;;;;;5066790;28;20052;-88
2022/10/29 09:15:51;;;;;;;30.30;16.60;;;14.70;99.90;;;;;;5069896;28;20078;-87
2022/10/29 09:18:23;;;;;;;28.85;16.25;;;14.70;99.90;;;;;;5090276;28;20074;-86
2022/10/29 09:21:12;;;;;;;31.83;15.60;;;14.80;99.90;;;;;;5083183;28;20040;-86
2022/10/29 09:24:04;;;;;;;35.45;18.23;;;14.80;99.90;;;;;;5069170;28;20048;-88
2022/10/29 09:26:37;;;;;;;37.10;16.30;;;14.80;99.90;;;;;;5059394;28;20050;-88
2022/10/29 09:29:14;;;;;;;30.90;15.32;;;14.80;99.90;;;;;;5043284;28;20059;-87
2022/10/29 09:31:43;;;;;;;37.63;17.08;;;14.80;99.90;;;;;;5081013;28;20044;-86
2022/10/29 09:34:11;;;;;;;31.65;16.27;;;14.80;99.90;;;;;;5028296;28;20039;-84
2022/10/29 09:36:37;;;;;;;35.47;16.17;;;14.90;99.90;;;;;;5033719;28;20056;-85
2022/10/29 09:39:09;;;;;;;30.98;14.98;;;14.90;99.90;;;;;;5053391;28;20043;-86
2022/10/29 09:41:35;;;;;;;31.02;16.77;;;14.90;99.90;;;;;;5034239;28;20051;-86
2022/10/29 09:44:27;;;;;;;28.65;15.85;;;14.90;99.90;;;;;;5035904;28;20399;-86
2022/10/29 09:47:13;;;;;;;29.15;14.95;;;14.90;99.90;;;;;;5071784;28;20052;-86
2022/10/29 09:50:18;;;;;;;31.95;16.27;;;15.00;99.90;;;;;;5071806;28;20050;-85
2022/10/29 09:52:43;;;;;;;32.63;17.50;;;15.10;99.90;;;;;;5021113;28;20052;-86
2022/10/29 09:55:39;;;;;;;34.25;17.23;;;15.20;99.90;;;;;;5050057;28;20040;-85
2022/10/29 09:58:05;;;;;;;26.60;15.50;;;15.20;99.90;;;;;;5061076;28;20055;-86
2022/10/29 10:00:31;;;;;;;33.13;17.55;;;15.30;99.90;;;;;;5067265;28;20039;-85
2022/10/29 10:03:26;;;;;;;34.03;18.60;;;15.40;99.90;;;;;;5035997;28;20548;-86
2022/10/29 10:06:02;;;;;;;26.58;16.63;;;15.60;99.90;;;;;;5047933;28;20056;-88
2022/10/29 10:08:29;;;;;;;24.23;15.45;;;16.50;99.90;;;;;;5034201;28;20557;-84
2022/10/29 10:10:59;;;;;;;29.13;16.00;;;15.70;99.90;;;;;;5061501;28;20097;-88
2022/10/29 10:13:30;;;;;;;28.98;15.95;;;15.70;99.90;;;;;;5065423;28;20044;-88
2022/10/29 10:16:00;;;;;;;26.15;16.13;;;15.70;99.90;;;;;;5064922;28;20048;-88
2022/10/29 10:18:32;;;;;;;27.98;15.50;;;15.70;99.90;;;;;;5061653;28;20130;-89
2022/10/29 10:21:23;;;;;;;27.30;16.00;;;15.90;99.90;;;;;;5078263;28;20101;-89
2022/10/29 10:23:53;;;;;;;29.23;16.70;;;16.00;99.90;;;;;;5080154;28;20062;-91
2022/10/29 10:26:38;;;;;;;27.63;15.90;;;15.90;99.90;;;;;;5080606;28;20575;-90
2022/10/29 10:29:03;;;;;;;28.65;15.95;;;15.90;99.90;;;;;;5075466;28;20085;-89
2022/10/29 10:31:29;;;;;;;23.70;15.68;;;15.90;99.90;;;;;;5078264;28;20051;-89
2022/10/29 10:33:55;;;;;;;25.88;15.32;;;16.00;99.90;;;;;;5086571;27;20105;-86
2022/10/29 10:36:24;;;;;;;26.00;16.27;;;16.00;99.90;;;;;;5096890;28;20035;-86
2022/10/29 10:38:57;;;;;;;25.55;14.73;;;16.10;99.90;;;;;;5080868;27;20028;-86
2022/10/29 10:41:29;;;;;;;22.90;15.20;;;16.20;99.90;;;;;;5071457;28;20114;-88
2022/10/29 10:43:59;;;;;;;23.38;16.08;;;16.40;99.90;;;;;;5070443;28;20044;-87
2022/10/29 10:46:29;;;;;;;27.58;15.00;;;16.40;99.90;;;;;;5065080;28;20056;-88
2022/10/29 10:49:06;;;;;;;31.58;15.88;;;16.50;99.90;;;;;;5067988;28;20083;-88
2022/10/29 10:51:32;;;;;;;23.80;15.70;;;16.60;99.90;;;;;;5054142;28;20083;-90
2022/10/29 10:53:59;;;;;;;27.15;15.27;;;16.70;99.90;;;;;;5040286;28;20044;-91
2022/10/29 10:56:24;;;;;;;21.17;13.23;;;17.10;99.90;;;;;;5059368;28;20568;-89
2022/10/29 10:58:50;;;;;;;22.23;13.43;;;17.30;99.90;;;;;;5065898;28;20101;-88
2022/10/29 11:01:24;;;;;;;19.95;12.65;;;17.20;99.90;;;;;;5083397;28;20031;-84
2022/10/29 11:04:32;;;;;;;21.05;12.88;;;17.20;99.90;;;;;;5052099;28;20052;-87
2022/10/29 11:07:01;;;;;;;23.60;13.15;;;17.20;99.90;;;;;;5056526;28;20066;-91
2022/10/29 11:09:33;;;;;;;20.48;12.13;;;17.40;99.90;;;;;;5026258;28;20492;-87
2022/10/29 11:12:04;;;;;;;24.90;12.43;;;17.40;99.90;;;;;;5032452;28;20537;-87
2022/10/29 11:14:54;;;;;;;20.65;11.55;;;17.50;99.90;;;;;;5059894;28;20047;-87
2022/10/29 11:17:30;;;;;;;22.40;11.48;;;17.70;99.90;;;;;;5057652;28;20078;-88
2022/10/29 11:19:58;;;;;;;22.98;11.63;;;17.80;99.90;;;;;;5078550;28;20050;-86
2022/10/29 11:22:52;;;;;;;18.40;11.02;;;17.80;99.90;;;;;;5077892;28;20083;-90
2022/10/29 11:25:30;;;;;;;16.58;11.18;;;17.90;99.90;;;;;;5050932;28;20051;-84
2022/10/29 11:28:14;;;;;;;18.60;10.85;;;17.90;99.90;;;;;;5079513;28;20044;-87
2022/10/29 11:30:45;;;;;;;18.20;11.90;;;18.00;99.90;;;;;;5096552;28;20052;-85
2022/10/29 11:33:46;;;;;;;22.00;11.38;;;18.00;99.90;;;;;;5044527;28;20142;-86
2022/10/29 11:36:22;;;;;;;21.95;11.32;;;18.10;99.90;;;;;;4992658;28;20057;-86
2022/10/29 11:38:54;;;;;;;24.88;12.15;;;18.10;99.90;;;;;;5079467;28;20085;-87
2022/10/29 11:41:41;;;;;;;24.70;12.68;;;18.00;99.90;;;;;;5077475;28;20079;-84
2022/10/29 11:44:12;;;;;;;22.27;12.95;;;18.10;99.90;;;;;;5096120;28;20391;-90
2022/10/29 11:47:09;;;;;;;18.52;12.05;;;18.10;99.90;;;;;;5054406;28;20064;-87
2022/10/29 11:49:53;;;;;;;20.92;12.23;;;18.10;99.90;;;;;;5037200;28;20509;-90
2022/10/29 11:52:30;;;;;;;20.50;13.13;;;18.10;99.90;;;;;;5054984;28;20045;-90
2022/10/29 11:55:07;;;;;;;21.05;12.32;;;18.10;99.90;;;;;;5044990;28;20147;-87
2022/10/29 11:57:48;;;;;;;21.95;12.85;;;18.10;99.90;;;;;;5079517;28;20029;-85
2022/10/29 12:00:18;;;;;;;23.48;12.63;;;18.30;99.90;;;;;;5081583;28;20041;-89
2022/10/29 12:03:12;;;;;;;20.30;12.00;;;18.40;99.90;;;;;;5010042;28;20481;-89
2022/10/29 12:06:12;;;;;;;20.53;12.20;;;18.50;99.90;;;;;;5042288;28;20059;-91
2022/10/29 12:09:11;;;;;;;22.23;11.93;;;18.60;99.90;;;;;;5028205;28;20320;-89
2022/10/29 12:11:45;;;;;;;16.73;11.90;;;18.80;99.90;;;;;;5027178;28;20063;-89
2022/10/29 12:14:18;;;;;;;20.92;11.70;;;18.90;99.90;;;;;;4996109;28;20462;-90
2022/10/29 12:17:03;;;;;;;16.88;10.55;;;18.90;99.90;;;;;;5047378;28;20400;-86
2022/10/29 12:19:56;;;;;;;21.50;11.43;;;18.80;99.90;;;;;;5030949;28;20374;-87
2022/10/29 12:22:22;;;;;;;20.38;11.43;;;18.90;99.90;;;;;;5047241;28;20471;-87
2022/10/29 12:25:07;;;;;;;18.85;10.77;;;18.90;99.90;;;;;;5047045;28;20139;-85
2022/10/29 12:27:59;;;;;;;18.33;10.27;;;18.90;99.90;;;;;;5031586;28;20102;-87
2022/10/29 12:30:25;;;;;;;16.90;10.95;;;18.90;99.90;;;;;;5021551;28;20048;-88
2022/10/29 12:32:58;;;;;;;17.42;10.48;;;18.70;99.90;;;;;;5031193;28;20059;-87
2022/10/29 12:35:37;;;;;;;16.88;9.77;;;18.80;99.90;;;;;;5014584;28;20379;-89
2022/10/29 12:38:22;;;;;;;18.80;10.18;;;18.80;99.90;;;;;;5049389;28;20052;-90
2022/10/29 12:40:49;;;;;;;20.08;10.68;;;18.70;99.90;;;;;;5049818;28;20067;-88
2022/10/29 12:43:32;;;;;;;20.08;10.45;;;18.70;99.90;;;;;;5015191;28;20045;-91
2022/10/29 12:46:16;;;;;;;17.75;10.93;;;18.70;99.90;;;;;;5019901;28;20063;-88